Leixlip, Ireland
Current Conditions -  °F | °C
As of 6:00 AM on Thursday 29 Jan 2015 (Local Time) from EIME Reporting Station
Scattered Clouds Scattered Clouds  
Wind Chill: 24°   Ceiling: Unl
Heat Index: 36°   Visibility: 6mi
Dew Point: 32°   Wind: 22mph
Humidity: 87%   Direction: 240°WSW
Pressure: 29.15"   Gusts: NA
Location:  53.37°N, 6.49°W
Report Text: EIME 290600Z 24019KT 9999 FEW015 FEW020CB SCT100 02/M00 Q0987
Loading
Personal Weather Stations






























Interactive Weather Map New forecast layout! Learn more

10-Day Weather Forecast

Advertisements
Track Severe Weather on mobile